createdAt,value
2023-02-16T00:02:22.260Z,1.74
2023-02-16T00:04:53.106Z,1.73
2023-02-16T00:07:23.711Z,1.71
2023-02-16T00:09:54.393Z,1.69
2023-02-16T00:12:25.070Z,1.68
2023-02-16T00:14:55.766Z,1.66
2023-02-16T00:17:26.445Z,1.64
2023-02-16T00:19:57.023Z,1.62
2023-02-16T00:22:27.690Z,1.59
2023-02-16T00:24:58.451Z,1.61
2023-02-16T00:27:29.096Z,1.61
2023-02-16T00:29:59.862Z,1.60
2023-02-16T00:32:30.482Z,1.59
2023-02-16T00:35:01.145Z,1.59
2023-02-16T00:37:31.871Z,1.58
2023-02-16T00:40:02.996Z,1.57
2023-02-16T00:42:34.669Z,1.57
2023-02-16T00:45:14.645Z,1.57
2023-02-16T00:47:47.365Z,1.57
2023-02-16T00:50:31.710Z,1.57
2023-02-16T00:53:02.480Z,1.55
2023-02-16T00:55:35.515Z,1.55
2023-02-16T00:58:13.289Z,1.53
2023-02-16T01:00:48.745Z,1.52
2023-02-16T01:03:22.601Z,1.50
2023-02-16T01:05:53.910Z,1.49
2023-02-16T01:08:26.000Z,1.49
2023-02-16T01:10:57.100Z,1.49
2023-02-16T01:13:27.967Z,1.48
2023-02-16T01:15:58.821Z,1.46
2023-02-16T01:18:29.548Z,1.46
2023-02-16T01:21:00.231Z,1.43
2023-02-16T01:23:30.850Z,1.43
2023-02-16T01:26:01.580Z,1.42
2023-02-16T01:28:34.197Z,1.42
2023-02-16T01:31:05.829Z,1.41
2023-02-16T01:33:36.754Z,1.41
2023-02-16T01:36:22.849Z,1.41
2023-02-16T01:38:53.574Z,1.37
2023-02-16T01:41:37.477Z,1.36
2023-02-16T01:44:14.375Z,1.34
2023-02-16T01:46:52.460Z,1.33
2023-02-16T01:49:23.421Z,1.33
2023-02-16T01:52:00.858Z,1.32
2023-02-16T01:54:40.928Z,1.31
2023-02-16T01:57:27.182Z,1.28
2023-02-16T02:00:27.707Z,1.25
2023-02-16T02:03:00.848Z,1.22
2023-02-16T02:05:32.944Z,1.22
2023-02-16T02:08:10.340Z,1.22
2023-02-16T02:10:49.981Z,1.21
2023-02-16T02:13:26.753Z,1.22
2023-02-16T02:15:59.246Z,1.22
2023-02-16T02:18:29.917Z,1.23
2023-02-16T02:21:24.381Z,1.23
2023-02-16T02:24:12.105Z,1.23
2023-02-16T02:27:03.126Z,1.25
2023-02-16T02:29:56.682Z,1.23
2023-02-16T02:32:36.146Z,1.23
2023-02-16T02:35:19.512Z,1.21
2023-02-16T02:37:56.583Z,1.20
2023-02-16T02:40:39.172Z,1.20
2023-02-16T02:43:16.629Z,1.19
2023-02-16T02:45:51.493Z,1.19
2023-02-16T02:48:22.387Z,1.19
2023-02-16T02:50:56.186Z,1.17
2023-02-16T02:53:26.821Z,1.14
2023-02-16T02:55:58.338Z,1.12
2023-02-16T02:58:33.648Z,1.10
2023-02-16T03:01:05.607Z,1.07
2023-02-16T03:03:42.409Z,1.06
2023-02-16T03:06:19.583Z,1.05
2023-02-16T03:08:56.005Z,1.03
2023-02-16T03:11:28.747Z,1.05
2023-02-16T03:14:02.313Z,1.05
2023-02-16T03:16:38.481Z,1.07
2023-02-16T03:19:12.282Z,1.09
2023-02-16T03:21:43.663Z,1.11
2023-02-16T03:24:21.877Z,1.11
2023-02-16T03:26:54.191Z,1.12
2023-02-16T03:29:26.934Z,1.11
2023-02-16T03:31:58.403Z,1.11
2023-02-16T03:34:30.799Z,1.11
2023-02-16T03:37:02.057Z,1.10
2023-02-16T03:39:33.313Z,1.10
2023-02-16T03:42:04.019Z,1.10
2023-02-16T03:44:34.680Z,1.08
2023-02-16T03:47:05.365Z,1.03
2023-02-16T03:49:35.992Z,0.99
2023-02-16T03:52:06.951Z,1.00
2023-02-16T03:54:37.620Z,1.00
2023-02-16T03:57:08.399Z,0.97
2023-02-16T03:59:39.069Z,0.94
2023-02-16T04:02:09.723Z,0.94
2023-02-16T04:04:40.331Z,0.93
2023-02-16T04:07:11.005Z,0.94
2023-02-16T04:09:41.632Z,0.92
2023-02-16T04:12:13.308Z,0.92
2023-02-16T04:14:44.058Z,0.90
2023-02-16T04:17:14.992Z,0.90
2023-02-16T04:19:45.579Z,0.89
2023-02-16T04:22:16.287Z,0.89
2023-02-16T04:24:46.997Z,0.88
2023-02-16T04:27:17.829Z,0.89
2023-02-16T04:29:48.424Z,0.87
2023-02-16T04:32:19.651Z,0.86
2023-02-16T04:34:50.329Z,0.87
2023-02-16T04:37:20.989Z,0.87
2023-02-16T04:39:51.662Z,0.88
2023-02-16T04:42:22.381Z,0.87
2023-02-16T04:44:53.002Z,0.85
2023-02-16T04:47:24.167Z,0.84
2023-02-16T04:49:53.353Z,0.83
2023-02-16T04:52:24.062Z,0.83
2023-02-16T04:54:54.766Z,0.83
2023-02-16T04:57:26.560Z,0.83
2023-02-16T04:59:57.183Z,0.80
2023-02-16T05:02:28.102Z,0.81
2023-02-16T05:04:58.909Z,0.82
2023-02-16T05:07:29.992Z,0.83
2023-02-16T05:09:59.053Z,0.81
2023-02-16T05:12:29.784Z,0.80
2023-02-16T05:15:00.412Z,0.80
2023-02-16T05:17:31.090Z,0.80
2023-02-16T05:20:02.121Z,0.79
2023-02-16T05:22:32.825Z,0.78
2023-02-16T05:25:03.712Z,0.77
2023-02-16T05:27:34.408Z,0.76
2023-02-16T05:30:06.041Z,0.78
2023-02-16T05:32:36.816Z,0.79
2023-02-16T05:35:08.029Z,0.79
2023-02-16T05:37:40.530Z,0.78
2023-02-16T05:40:15.809Z,0.77
2023-02-16T05:42:46.616Z,0.77
2023-02-16T05:45:17.454Z,0.77
2023-02-16T05:47:48.298Z,0.77
2023-02-16T05:50:19.159Z,0.74
2023-02-16T05:52:49.822Z,0.73
2023-02-16T05:55:20.493Z,0.69
2023-02-16T05:57:51.362Z,0.68
2023-02-16T06:00:24.036Z,0.67
2023-02-16T06:03:01.667Z,0.67
2023-02-16T06:05:32.416Z,0.67
2023-02-16T06:08:03.064Z,0.66
2023-02-16T06:10:33.766Z,0.67
2023-02-16T06:13:04.461Z,0.67
2023-02-16T06:15:35.214Z,0.65
2023-02-16T06:18:06.516Z,0.66
2023-02-16T06:20:37.481Z,0.67
2023-02-16T06:23:10.917Z,0.69
2023-02-16T06:25:43.290Z,0.72
2023-02-16T06:28:13.937Z,0.76
2023-02-16T06:30:44.662Z,0.78
2023-02-16T06:33:15.324Z,0.81
2023-02-16T06:35:45.967Z,0.84
2023-02-16T06:38:16.809Z,0.86
2023-02-16T06:40:47.501Z,0.90
2023-02-16T06:43:18.205Z,0.94
2023-02-16T06:45:49.428Z,1.00
2023-02-16T06:48:20.151Z,1.06
2023-02-16T06:50:50.841Z,1.14
2023-02-16T06:53:21.706Z,1.20
2023-02-16T06:55:52.862Z,1.28
2023-02-16T06:58:22.033Z,1.34
2023-02-16T07:00:54.387Z,1.39
2023-02-16T07:03:25.165Z,1.47
2023-02-16T07:05:55.973Z,1.55
2023-02-16T07:08:27.652Z,1.63
2023-02-16T07:10:58.841Z,1.71
2023-02-16T07:13:29.736Z,1.79
2023-02-16T07:16:00.466Z,1.84
2023-02-16T07:18:33.620Z,1.90
2023-02-16T07:21:05.125Z,1.98
2023-02-16T07:24:43.333Z,2.08
2023-02-16T07:26:52.647Z,2.17
2023-02-16T07:29:23.739Z,2.26
2023-02-16T07:31:52.963Z,2.33
2023-02-16T07:34:24.414Z,2.38
2023-02-16T07:36:58.771Z,2.42
2023-02-16T07:39:30.220Z,2.48
2023-02-16T07:42:00.876Z,2.54
2023-02-16T07:44:31.545Z,2.58
2023-02-16T07:47:02.293Z,2.59
2023-02-16T07:49:32.980Z,2.64
2023-02-16T07:52:03.697Z,2.68
2023-02-16T07:54:34.888Z,2.70
2023-02-16T07:57:05.681Z,2.73
2023-02-16T07:59:36.471Z,2.79
2023-02-16T08:02:07.319Z,2.86
2023-02-16T08:04:38.176Z,2.93
2023-02-16T08:07:10.973Z,3.00
2023-02-16T08:09:42.115Z,3.05
2023-02-16T08:12:11.597Z,3.11
2023-02-16T08:14:42.556Z,3.17
2023-02-16T08:17:13.586Z,3.27
2023-02-16T08:19:44.200Z,3.38
2023-02-16T08:22:15.076Z,3.48
2023-02-16T08:24:45.905Z,3.56
2023-02-16T08:27:16.913Z,3.67
2023-02-16T08:29:47.609Z,3.80
2023-02-16T08:32:18.506Z,3.88
2023-02-16T08:34:49.598Z,4.00
2023-02-16T08:37:20.252Z,4.14
2023-02-16T08:39:51.012Z,4.27
2023-02-16T08:42:21.659Z,4.37
2023-02-16T08:44:52.353Z,4.47
2023-02-16T08:47:23.010Z,4.56
2023-02-16T08:49:53.711Z,4.60
2023-02-16T08:52:24.430Z,4.64
2023-02-16T08:54:55.061Z,4.74
2023-02-16T08:57:25.644Z,4.83
2023-02-16T08:59:56.349Z,4.94
2023-02-16T09:02:26.982Z,5.06
2023-02-16T09:04:57.722Z,5.10
2023-02-16T09:07:28.372Z,5.18
2023-02-16T09:09:59.012Z,5.27
2023-02-16T09:12:29.910Z,5.27
2023-02-16T09:15:00.625Z,5.36
2023-02-16T09:17:31.354Z,5.37
2023-02-16T09:20:02.704Z,5.41
2023-02-16T09:22:33.441Z,5.48
2023-02-16T09:25:04.310Z,5.53
2023-02-16T09:27:35.016Z,5.65
2023-02-16T09:30:16.751Z,5.76
2023-02-16T09:32:47.447Z,5.85
2023-02-16T09:35:18.804Z,5.94
2023-02-16T09:37:50.177Z,5.99
2023-02-16T09:40:21.526Z,5.98
2023-02-16T09:43:02.790Z,5.93
2023-02-16T09:45:32.375Z,5.90
2023-02-16T09:48:03.905Z,5.90
2023-02-16T09:50:53.020Z,5.94
2023-02-16T09:53:35.418Z,5.95
2023-02-16T09:56:17.907Z,5.96
2023-02-16T09:58:53.645Z,5.98
2023-02-16T10:01:31.272Z,6.05
2023-02-16T10:04:17.894Z,6.18
2023-02-16T10:07:01.024Z,6.31
2023-02-16T10:09:33.410Z,6.39
2023-02-16T10:12:09.380Z,6.45
2023-02-16T10:14:44.340Z,6.52
2023-02-16T10:17:23.961Z,6.64
2023-02-16T10:19:59.634Z,6.75
2023-02-16T10:22:35.017Z,6.86
2023-02-16T10:25:10.908Z,6.97
2023-02-16T10:27:43.420Z,7.05
2023-02-16T10:30:16.231Z,7.15
2023-02-16T10:32:56.568Z,7.24
2023-02-16T10:35:35.325Z,7.29
2023-02-16T10:38:12.499Z,7.34
2023-02-16T10:40:52.599Z,7.41
2023-02-16T10:43:35.853Z,7.48
2023-02-16T10:46:07.041Z,7.51
2023-02-16T10:48:38.474Z,7.52
2023-02-16T10:51:12.577Z,7.61
2023-02-16T10:53:46.613Z,7.73
2023-02-16T10:59:37.309Z,7.98
2023-02-16T11:02:19.960Z,8.06
2023-02-16T11:04:52.627Z,8.18
2023-02-16T11:07:25.107Z,8.26
2023-02-16T11:09:58.493Z,8.32
2023-02-16T11:12:31.838Z,8.36
2023-02-16T11:15:06.691Z,8.42
2023-02-16T11:17:52.354Z,8.46
2023-02-16T11:20:31.568Z,8.56
2023-02-16T11:23:24.970Z,8.61
2023-02-16T11:26:01.322Z,8.64
2023-02-16T11:28:35.665Z,8.70
2023-02-16T11:31:25.442Z,8.77
2023-02-16T11:34:04.877Z,8.81
2023-02-16T11:36:39.081Z,8.88
2023-02-16T11:39:18.788Z,8.97
2023-02-16T11:41:53.932Z,8.99
2023-02-16T11:44:31.582Z,9.04
2023-02-16T11:47:08.448Z,9.09
2023-02-16T11:49:41.093Z,9.21
2023-02-16T11:52:26.866Z,9.31
2023-02-16T11:54:59.337Z,9.37
2023-02-16T11:57:32.219Z,9.42
2023-02-16T12:00:07.743Z,9.46
2023-02-16T12:02:57.435Z,9.54
2023-02-16T12:05:35.676Z,9.60
2023-02-16T12:08:33.548Z,9.63
2023-02-16T12:11:18.188Z,9.62
2023-02-16T12:13:58.008Z,9.62
2023-02-16T12:16:40.084Z,9.65
2023-02-16T12:19:22.377Z,9.68
2023-02-16T12:21:59.422Z,9.71
2023-02-16T12:24:41.881Z,9.79
2023-02-16T12:27:20.013Z,9.93
2023-02-16T12:30:00.250Z,10.02
2023-02-16T12:32:48.073Z,10.06
2023-02-16T12:35:33.666Z,10.12
2023-02-16T12:38:15.850Z,10.14
2023-02-16T12:40:58.523Z,10.16
2023-02-16T12:43:39.576Z,10.16
2023-02-16T12:46:17.300Z,10.20
2023-02-16T12:48:51.378Z,10.25
2023-02-16T12:51:26.300Z,10.30
2023-02-16T12:54:01.630Z,10.36
2023-02-16T12:56:39.076Z,10.44
2023-02-16T12:59:20.318Z,10.54
2023-02-16T13:01:50.107Z,10.62
2023-02-16T13:04:25.973Z,10.66
2023-02-16T13:07:02.249Z,10.74
2023-02-16T13:09:44.156Z,10.79
2023-02-16T13:12:24.709Z,10.88
2023-02-16T13:15:04.950Z,10.96
2023-02-16T13:17:41.239Z,10.96
2023-02-16T13:20:19.523Z,10.95
2023-02-16T13:23:06.242Z,10.93
2023-02-16T13:25:48.967Z,10.95
2023-02-16T13:28:36.888Z,10.97
2023-02-16T13:31:21.360Z,10.95
2023-02-16T13:34:08.510Z,10.92
2023-02-16T13:37:02.191Z,10.86
2023-02-16T13:39:53.746Z,10.84
2023-02-16T13:42:59.151Z,10.82
2023-02-16T13:45:33.922Z,10.82
2023-02-16T13:48:16.088Z,10.82
2023-02-16T13:50:48.437Z,10.84
2023-02-16T13:53:22.062Z,10.85
2023-02-16T13:56:15.308Z,10.85
2023-02-16T13:58:46.026Z,10.83
2023-02-16T14:01:41.584Z,10.83
2023-02-16T14:04:52.700Z,10.80
2023-02-16T14:07:35.311Z,10.81
2023-02-16T14:10:12.794Z,10.83
2023-02-16T14:12:43.665Z,10.85
2023-02-16T14:15:21.479Z,10.84
2023-02-16T14:17:52.823Z,10.83
2023-02-16T14:20:30.899Z,10.88
2023-02-16T14:23:01.731Z,10.92
2023-02-16T14:25:40.383Z,10.96
2023-02-16T14:28:47.453Z,10.97
2023-02-16T14:31:20.915Z,11.01
2023-02-16T14:34:01.366Z,11.01
2023-02-16T14:36:32.464Z,10.98
2023-02-16T14:39:03.724Z,10.91
2023-02-16T14:41:35.805Z,10.83
2023-02-16T14:44:33.878Z,10.75
2023-02-16T14:47:22.247Z,10.60
2023-02-16T14:50:17.469Z,10.44
2023-02-16T14:53:17.949Z,10.32
2023-02-16T14:56:18.955Z,10.24
2023-02-16T14:58:57.488Z,10.17
2023-02-16T15:01:28.766Z,10.11
2023-02-16T15:03:59.585Z,10.03
2023-02-16T15:06:33.332Z,9.97
2023-02-16T15:09:06.056Z,9.88
2023-02-16T15:11:40.885Z,9.84
2023-02-16T15:14:15.878Z,9.82
2023-02-16T15:16:46.567Z,9.83
2023-02-16T15:19:26.315Z,9.82
2023-02-16T15:22:17.835Z,9.81
2023-02-16T15:24:58.546Z,9.80
2023-02-16T15:27:39.503Z,9.75
2023-02-16T15:30:23.542Z,9.68
2023-02-16T15:32:56.825Z,9.59
2023-02-16T15:35:32.587Z,9.51
2023-02-16T15:38:23.970Z,9.40
2023-02-16T15:40:56.546Z,9.31
2023-02-16T15:43:34.675Z,9.22
2023-02-16T15:46:07.558Z,9.12
2023-02-16T15:48:39.526Z,9.04
2023-02-16T15:51:15.296Z,8.95
2023-02-16T15:53:51.728Z,8.85
2023-02-16T15:56:45.657Z,8.76
2023-02-16T15:59:27.774Z,8.66
2023-02-16T16:02:01.103Z,8.57
2023-02-16T16:04:33.047Z,8.49
2023-02-16T16:07:05.457Z,8.40
2023-02-16T16:09:38.605Z,8.33
2023-02-16T16:12:13.861Z,8.25
2023-02-16T16:14:51.322Z,8.18
2023-02-16T16:17:26.225Z,8.11
2023-02-16T16:19:57.740Z,8.03
2023-02-16T16:22:36.462Z,7.95
2023-02-16T16:25:30.147Z,7.87
2023-02-16T16:28:01.447Z,7.77
2023-02-16T16:30:35.436Z,7.71
2023-02-16T16:33:08.029Z,7.64
2023-02-16T16:35:44.048Z,7.60
2023-02-16T16:38:26.139Z,7.53
2023-02-16T16:40:59.613Z,7.48
2023-02-16T16:43:32.752Z,7.43
2023-02-16T16:46:18.928Z,7.39
2023-02-16T16:48:52.452Z,7.36
2023-02-16T16:51:38.851Z,7.33
2023-02-16T16:54:33.160Z,7.29
2023-02-16T16:57:12.960Z,7.25
2023-02-16T16:59:43.653Z,7.21
2023-02-16T17:02:14.347Z,7.18
2023-02-16T17:04:44.979Z,7.16
2023-02-16T17:07:15.747Z,7.13
2023-02-16T17:09:46.734Z,7.13
2023-02-16T17:12:17.859Z,7.13
2023-02-16T17:14:48.775Z,7.15
2023-02-16T17:17:19.781Z,7.18
2023-02-16T17:19:49.121Z,7.22
2023-02-16T17:22:21.094Z,7.23
2023-02-16T17:24:51.989Z,7.22
2023-02-16T17:27:22.695Z,7.25
2023-02-16T17:29:53.648Z,7.24
2023-02-16T17:32:22.934Z,7.23
2023-02-16T17:34:54.397Z,7.19
2023-02-16T17:37:25.402Z,7.18
2023-02-16T17:39:56.316Z,7.18
2023-02-16T17:42:27.939Z,7.16
2023-02-16T17:44:58.857Z,7.14
2023-02-16T17:47:29.861Z,7.14
2023-02-16T17:49:59.142Z,7.13
2023-02-16T17:52:30.118Z,7.11
2023-02-16T17:55:00.850Z,7.10
2023-02-16T17:57:31.846Z,7.10
2023-02-16T18:00:01.082Z,7.10
2023-02-16T18:02:32.313Z,7.08
2023-02-16T18:05:02.988Z,7.09
2023-02-16T18:07:33.964Z,7.08
2023-02-16T18:10:04.350Z,7.08
2023-02-16T18:13:03.264Z,7.09
2023-02-16T18:15:34.387Z,7.12
2023-02-16T18:18:04.394Z,7.12
2023-02-16T18:20:35.430Z,7.13
2023-02-16T18:23:04.915Z,7.14
2023-02-16T18:25:36.349Z,7.14
2023-02-16T18:28:07.733Z,7.14
2023-02-16T18:30:39.218Z,7.14
2023-02-16T18:33:10.275Z,7.13
2023-02-16T18:35:41.380Z,7.14
2023-02-16T18:38:15.479Z,7.15
2023-02-16T18:40:46.913Z,7.14
2023-02-16T18:43:17.692Z,7.15
2023-02-16T18:45:50.017Z,7.15
2023-02-16T18:48:21.244Z,7.15
2023-02-16T18:50:52.232Z,7.16
2023-02-16T18:53:21.575Z,7.17
2023-02-16T18:55:52.215Z,7.16
2023-02-16T18:58:23.210Z,7.16
2023-02-16T19:00:52.613Z,7.15
2023-02-16T19:03:23.738Z,7.15
2023-02-16T19:05:52.855Z,7.15
2023-02-16T19:08:23.571Z,7.15
2023-02-16T19:10:54.300Z,7.16
2023-02-16T19:13:25.096Z,7.16
2023-02-16T19:15:56.258Z,7.16
2023-02-16T19:18:25.683Z,7.18
2023-02-16T19:20:56.962Z,7.19
2023-02-16T19:23:27.998Z,7.22
2023-02-16T19:25:57.227Z,7.24
2023-02-16T19:28:28.458Z,7.25
2023-02-16T19:31:04.803Z,7.27
2023-02-16T19:33:36.118Z,7.28
2023-02-16T19:36:09.357Z,7.30
2023-02-16T19:38:40.464Z,7.31
2023-02-16T19:41:14.184Z,7.31
2023-02-16T19:43:45.632Z,7.32
2023-02-16T19:46:17.007Z,7.34
2023-02-16T19:48:47.738Z,7.33
2023-02-16T19:51:18.758Z,7.34
2023-02-16T19:53:48.541Z,7.35
2023-02-16T19:56:21.432Z,7.36
2023-02-16T19:58:52.872Z,7.38
2023-02-16T20:01:27.966Z,7.41
2023-02-16T20:03:59.057Z,7.43
2023-02-16T20:06:29.150Z,7.45
2023-02-16T20:09:01.184Z,7.47
2023-02-16T20:11:32.636Z,7.49
2023-02-16T20:14:03.368Z,7.51
2023-02-16T20:16:34.429Z,7.53
2023-02-16T20:19:03.558Z,7.55
2023-02-16T20:21:35.095Z,7.55
2023-02-16T20:24:08.439Z,7.55
2023-02-16T20:26:41.821Z,7.58
2023-02-16T20:29:14.519Z,7.59
2023-02-16T20:31:50.572Z,7.61
2023-02-16T20:34:22.473Z,7.62
2023-02-16T20:36:53.776Z,7.62
2023-02-16T20:39:25.315Z,7.64
2023-02-16T20:41:56.277Z,7.66
2023-02-16T20:44:27.551Z,7.69
2023-02-16T20:46:58.351Z,7.71
2023-02-16T20:49:29.149Z,7.73
2023-02-16T20:51:59.839Z,7.71
2023-02-16T20:54:30.581Z,7.71
2023-02-16T20:57:01.260Z,7.73
2023-02-16T20:59:30.937Z,7.72
2023-02-16T21:02:01.628Z,7.69
2023-02-16T21:04:32.834Z,7.69
2023-02-16T21:07:01.945Z,7.69
2023-02-16T21:09:33.461Z,7.70
2023-02-16T21:12:04.316Z,7.71
2023-02-16T21:14:35.083Z,7.71
2023-02-16T21:17:10.316Z,7.71
2023-02-16T21:19:41.025Z,7.71
2023-02-16T21:22:11.787Z,7.70
2023-02-16T21:24:42.632Z,7.69
2023-02-16T21:27:13.371Z,7.69
2023-02-16T21:29:44.605Z,7.69
2023-02-16T21:32:15.250Z,7.69
2023-02-16T21:34:45.961Z,7.69
2023-02-16T21:37:16.752Z,7.68
2023-02-16T21:39:47.597Z,7.67
2023-02-16T21:42:18.356Z,7.68
2023-02-16T21:44:49.015Z,7.66
2023-02-16T21:47:19.856Z,7.66
2023-02-16T21:49:50.558Z,7.64
2023-02-16T21:52:21.237Z,7.64
2023-02-16T21:54:52.161Z,7.65
2023-02-16T21:57:24.820Z,7.66
2023-02-16T21:59:55.568Z,7.66
2023-02-16T22:02:26.458Z,7.63
2023-02-16T22:04:57.189Z,7.61
2023-02-16T22:07:27.849Z,7.61
2023-02-16T22:09:59.167Z,7.63
2023-02-16T22:12:29.786Z,7.61
2023-02-16T22:15:00.527Z,7.60
2023-02-16T22:17:31.512Z,7.59
2023-02-16T22:20:02.246Z,7.59
2023-02-16T22:22:32.968Z,7.56
2023-02-16T22:25:03.834Z,7.54
2023-02-16T22:27:34.590Z,7.54
2023-02-16T22:30:16.249Z,7.55
2023-02-16T22:32:48.787Z,7.55
2023-02-16T22:35:19.804Z,7.55
2023-02-16T22:37:50.476Z,7.54
2023-02-16T22:40:21.623Z,7.50
2023-02-16T22:42:58.693Z,7.46
2023-02-16T22:45:29.445Z,7.44
2023-02-16T22:48:00.369Z,7.42
2023-02-16T22:50:34.084Z,7.39
2023-02-16T22:53:04.902Z,7.38
2023-02-16T22:55:35.582Z,7.36
2023-02-16T22:58:06.220Z,7.33
2023-02-16T23:00:37.038Z,7.32
2023-02-16T23:03:07.682Z,7.29
2023-02-16T23:05:38.386Z,7.28
2023-02-16T23:08:09.729Z,7.27
2023-02-16T23:10:42.019Z,7.27
2023-02-16T23:13:12.849Z,7.28
2023-02-16T23:15:43.528Z,7.27
2023-02-16T23:18:14.159Z,7.25
2023-02-16T23:20:44.871Z,7.23
2023-02-16T23:23:16.070Z,7.21
2023-02-16T23:25:48.773Z,7.22
2023-02-16T23:28:19.345Z,7.21
2023-02-16T23:30:50.458Z,7.22
2023-02-16T23:33:21.218Z,7.23
2023-02-16T23:35:52.023Z,7.22
2023-02-16T23:38:23.141Z,7.23
2023-02-16T23:41:06.318Z,7.23
2023-02-16T23:43:37.634Z,7.24
2023-02-16T23:46:07.584Z,7.27
2023-02-16T23:48:38.924Z,7.28
2023-02-16T23:51:08.518Z,7.29
2023-02-16T23:53:40.635Z,7.29
2023-02-16T23:56:15.254Z,7.29
2023-02-16T23:58:46.983Z,7.31
